Time;durP1;ratioP1;P1;durP2;ratioP2;P2;SDS_P1;SDS_P2;PMS_P1;PMS_P2;Temp;Humidity;BMP_temperature;BMP_pressure;BME280_temperature;BME280_humidity;BME280_pressure;Samples;Min_cycle;Max_cycle;Signal;HPM_P1;HPM_P2
2020/12/07 00:00:43;;;;;;;1.20;1.20;;;4.10;83.00;;;;;;5063389;28;20037;-67
2020/12/07 00:03:09;;;;;;;1.30;1.20;;;4.20;83.10;;;;;;5058920;28;20592;-68
2020/12/07 00:05:36;;;;;;;1.50;1.27;;;4.20;83.00;;;;;;5065485;28;20120;-68
2020/12/07 00:08:02;;;;;;;1.30;1.20;;;4.20;82.90;;;;;;5068138;28;20037;-67
2020/12/07 00:10:28;;;;;;;1.30;1.20;;;4.20;82.90;;;;;;5060011;28;20094;-67
2020/12/07 00:12:53;;;;;;;1.48;1.38;;;4.20;82.80;;;;;;5073171;28;20029;-67
2020/12/07 00:15:19;;;;;;;1.55;1.45;;;4.30;82.90;;;;;;5066005;28;20083;-68
2020/12/07 00:17:45;;;;;;;1.30;1.20;;;4.30;82.90;;;;;;5064761;28;20496;-67
2020/12/07 00:20:11;;;;;;;1.52;1.42;;;4.30;82.80;;;;;;5061797;28;20408;-68
2020/12/07 00:22:36;;;;;;;1.60;1.42;;;4.30;82.70;;;;;;5061637;28;20399;-68
2020/12/07 00:25:04;;;;;;;1.48;1.38;;;4.30;82.60;;;;;;5056573;28;20032;-68
2020/12/07 00:27:32;;;;;;;1.45;1.35;;;4.30;82.60;;;;;;5059339;28;20102;-68
2020/12/07 00:29:58;;;;;;;1.60;1.50;;;4.30;82.60;;;;;;5068499;28;20404;-67
2020/12/07 00:32:24;;;;;;;1.40;1.30;;;4.30;82.60;;;;;;5059588;28;20066;-68
2020/12/07 00:34:51;;;;;;;1.55;1.45;;;4.30;82.60;;;;;;5063566;28;20033;-68
2020/12/07 00:37:18;;;;;;;2.03;1.58;;;4.30;82.60;;;;;;5064180;28;20070;-67
2020/12/07 00:39:44;;;;;;;1.50;1.40;;;4.30;82.60;;;;;;5063676;28;20033;-68
2020/12/07 00:42:10;;;;;;;1.50;1.40;;;4.30;82.60;;;;;;5068229;28;20036;-67
2020/12/07 00:44:36;;;;;;;2.00;1.80;;;4.30;82.60;;;;;;5067256;28;20037;-67
2020/12/07 00:47:03;;;;;;;1.70;1.60;;;4.30;82.50;;;;;;5065893;28;20029;-67
2020/12/07 00:49:29;;;;;;;1.70;1.60;;;4.20;82.50;;;;;;5067775;28;20124;-66
2020/12/07 00:51:54;;;;;;;1.70;1.60;;;4.30;82.60;;;;;;5067999;28;20463;-68
2020/12/07 00:54:22;;;;;;;1.80;1.70;;;4.20;82.50;;;;;;5067971;28;20029;-68
2020/12/07 00:56:54;;;;;;;1.70;1.60;;;4.20;82.60;;;;;;5070375;28;20037;-68
2020/12/07 00:59:20;;;;;;;1.95;1.85;;;4.20;82.70;;;;;;5061417;28;20029;-68
2020/12/07 01:01:47;;;;;;;1.90;1.80;;;4.20;82.80;;;;;;5055279;28;20075;-67
2020/12/07 01:04:12;;;;;;;1.67;1.58;;;4.20;82.80;;;;;;5061931;28;20033;-67
2020/12/07 01:06:38;;;;;;;1.88;1.77;;;4.20;82.80;;;;;;5066873;28;20040;-67
2020/12/07 01:09:04;;;;;;;1.80;1.70;;;4.20;82.80;;;;;;5067492;28;20063;-67
2020/12/07 01:11:29;;;;;;;2.47;1.63;;;4.30;82.80;;;;;;5063760;28;20098;-67
2020/12/07 01:13:55;;;;;;;1.80;1.70;;;4.30;82.70;;;;;;5069293;28;20044;-67
2020/12/07 01:16:24;;;;;;;1.83;1.73;;;4.20;82.50;;;;;;5061299;28;20102;-68
2020/12/07 01:18:50;;;;;;;2.38;1.70;;;4.20;82.50;;;;;;5069243;28;20037;-67
2020/12/07 01:21:17;;;;;;;2.10;1.90;;;4.20;82.40;;;;;;5065864;28;20045;-66
2020/12/07 01:23:47;;;;;;;2.05;1.83;;;4.20;82.40;;;;;;5062328;28;20450;-68
2020/12/07 01:26:13;;;;;;;1.63;1.52;;;4.10;82.40;;;;;;5070128;28;22186;-67
2020/12/07 01:28:39;;;;;;;1.65;1.55;;;4.00;82.40;;;;;;5065927;28;20059;-68
2020/12/07 01:31:05;;;;;;;1.90;1.80;;;4.10;82.50;;;;;;5067404;28;20041;-68
2020/12/07 01:33:30;;;;;;;1.90;1.80;;;4.10;82.60;;;;;;5065223;28;20041;-67
2020/12/07 01:35:57;;;;;;;1.60;1.50;;;4.10;82.60;;;;;;5067579;28;20045;-67
2020/12/07 01:38:23;;;;;;;1.60;1.50;;;4.00;82.60;;;;;;5065791;28;21752;-68
2020/12/07 01:40:50;;;;;;;1.65;1.48;;;4.00;82.60;;;;;;5065783;28;20049;-68
2020/12/07 01:43:16;;;;;;;1.67;1.58;;;4.00;82.60;;;;;;5067553;28;20029;-69
2020/12/07 01:45:42;;;;;;;1.60;1.50;;;4.00;82.80;;;;;;5067019;28;20064;-68
2020/12/07 01:48:09;;;;;;;1.50;1.40;;;4.00;82.90;;;;;;5057910;28;20076;-68
2020/12/07 01:50:39;;;;;;;1.70;1.60;;;4.00;82.90;;;;;;5067478;28;20035;-67
2020/12/07 01:53:05;;;;;;;1.60;1.50;;;4.00;82.90;;;;;;5068124;28;20029;-67
2020/12/07 01:55:31;;;;;;;1.42;1.33;;;4.00;82.80;;;;;;5062693;28;20040;-68
2020/12/07 01:57:56;;;;;;;1.40;1.30;;;4.00;83.70;;;;;;5065921;28;20111;-68
2020/12/07 02:00:23;;;;;;;1.90;1.80;;;4.00;82.80;;;;;;5067536;28;21135;-67
2020/12/07 02:02:49;;;;;;;1.67;1.58;;;4.00;82.90;;;;;;5061793;28;20124;-68
2020/12/07 02:05:15;;;;;;;1.88;1.77;;;3.90;82.80;;;;;;5064169;28;20032;-68
2020/12/07 02:07:41;;;;;;;1.90;1.80;;;3.90;82.80;;;;;;5064380;28;20602;-68
2020/12/07 02:10:06;;;;;;;2.30;2.10;;;3.90;82.80;;;;;;5058374;28;20048;-68
2020/12/07 02:12:33;;;;;;;2.47;1.95;;;3.90;82.80;;;;;;5057554;28;20029;-68
2020/12/07 02:14:58;;;;;;;2.78;2.50;;;3.90;83.60;;;;;;5058778;28;20029;-68
2020/12/07 02:17:24;;;;;;;4.93;2.40;;;3.90;82.80;;;;;;5066696;28;20039;-68
2020/12/07 02:19:50;;;;;;;2.85;2.50;;;3.80;82.80;;;;;;5066676;28;20409;-67
2020/12/07 02:22:16;;;;;;;2.50;2.30;;;3.90;82.90;;;;;;5069195;28;20028;-67
2020/12/07 02:24:41;;;;;;;2.38;2.17;;;3.80;83.00;;;;;;5063343;28;20036;-67
2020/12/07 02:27:09;;;;;;;2.60;2.40;;;3.80;83.00;;;;;;5066324;28;20032;-67
2020/12/07 02:29:35;;;;;;;2.22;2.03;;;3.90;83.20;;;;;;5065927;28;20036;-68
2020/12/07 02:32:21;;;;;;;2.22;2.03;;;3.80;83.10;;;;;;5060623;28;20036;-66
2020/12/07 02:34:46;;;;;;;2.20;2.00;;;3.70;83.30;;;;;;5057827;28;20052;-68
2020/12/07 02:37:12;;;;;;;2.00;1.90;;;3.70;83.00;;;;;;5064877;28;20037;-67
2020/12/07 02:39:38;;;;;;;1.98;1.88;;;3.70;83.20;;;;;;5059119;28;20469;-68
2020/12/07 02:42:05;;;;;;;2.20;2.00;;;3.70;83.20;;;;;;5067982;28;20032;-68
2020/12/07 02:44:31;;;;;;;1.88;1.77;;;3.70;83.30;;;;;;5057001;28;20403;-67
2020/12/07 02:46:59;;;;;;;2.20;2.00;;;3.70;83.30;;;;;;5062561;28;20033;-68
2020/12/07 02:49:26;;;;;;;2.17;2.00;;;3.70;83.50;;;;;;5062903;28;20086;-67
2020/12/07 02:51:52;;;;;;;2.10;2.00;;;3.70;83.50;;;;;;5065471;28;20529;-68
2020/12/07 02:54:18;;;;;;;2.00;1.90;;;3.70;83.50;;;;;;5063648;28;20104;-68
2020/12/07 02:56:44;;;;;;;2.00;1.90;;;3.70;83.70;;;;;;5063296;28;20093;-65
2020/12/07 02:59:10;;;;;;;1.88;1.77;;;3.60;83.60;;;;;;5063922;28;20032;-68
2020/12/07 03:01:36;;;;;;;1.85;1.75;;;3.60;83.70;;;;;;5064997;28;20047;-67
2020/12/07 03:04:02;;;;;;;2.15;1.95;;;3.60;83.80;;;;;;5065404;28;20417;-68
2020/12/07 03:06:27;;;;;;;1.60;1.50;;;3.70;83.90;;;;;;5064131;28;20044;-68
2020/12/07 03:08:54;;;;;;;2.03;1.92;;;3.60;83.90;;;;;;5059498;28;20075;-68
2020/12/07 03:11:21;;;;;;;1.92;1.83;;;3.70;83.90;;;;;;5059917;28;20040;-68
2020/12/07 03:13:47;;;;;;;1.90;1.80;;;3.70;83.90;;;;;;5059492;28;20082;-68
2020/12/07 03:16:13;;;;;;;1.95;1.85;;;3.60;83.80;;;;;;5067939;28;20029;-69
2020/12/07 03:18:38;;;;;;;1.70;1.60;;;3.70;83.90;;;;;;5065409;28;20032;-68
2020/12/07 03:21:04;;;;;;;1.90;1.80;;;3.70;83.90;;;;;;5065487;28;20391;-68
2020/12/07 03:23:29;;;;;;;1.83;1.73;;;3.70;83.90;;;;;;5060626;28;20617;-68
2020/12/07 03:25:55;;;;;;;1.48;1.38;;;3.70;83.90;;;;;;5055199;28;20043;-68
2020/12/07 03:28:20;;;;;;;1.80;1.70;;;3.70;84.00;;;;;;5067384;28;20033;-69
2020/12/07 03:30:46;;;;;;;1.80;1.70;;;3.70;84.00;;;;;;5065187;28;20056;-68
2020/12/07 03:33:12;;;;;;;1.65;1.55;;;3.70;84.00;;;;;;5068234;28;20399;-68
2020/12/07 03:35:37;;;;;;;1.90;1.80;;;3.70;83.90;;;;;;5061274;28;20040;-68
2020/12/07 03:38:03;;;;;;;1.98;1.88;;;3.70;83.90;;;;;;5060192;28;20052;-69
2020/12/07 03:40:32;;;;;;;1.83;1.73;;;3.60;83.90;;;;;;5063056;28;20029;-68
2020/12/07 03:42:58;;;;;;;1.70;1.60;;;3.70;84.00;;;;;;5064288;28;20394;-69
2020/12/07 03:45:23;;;;;;;1.67;1.58;;;3.60;84.00;;;;;;5065789;28;20032;-69
2020/12/07 03:47:49;;;;;;;1.90;1.80;;;3.70;84.20;;;;;;5064973;28;20029;-69
2020/12/07 03:50:14;;;;;;;1.80;1.70;;;3.70;84.20;;;;;;5068514;28;20039;-68
2020/12/07 03:52:40;;;;;;;1.80;1.70;;;3.70;84.20;;;;;;5059460;28;20061;-69
2020/12/07 03:55:06;;;;;;;1.75;1.65;;;3.70;84.30;;;;;;5063533;28;20060;-69
2020/12/07 03:57:31;;;;;;;1.83;1.73;;;3.70;84.30;;;;;;5060980;28;22305;-68
2020/12/07 03:59:57;;;;;;;1.73;1.63;;;3.70;84.20;;;;;;5054206;28;20037;-68
2020/12/07 04:02:22;;;;;;;1.75;1.65;;;3.80;84.20;;;;;;5060441;28;20119;-68
2020/12/07 04:04:56;;;;;;;2.33;2.13;;;3.80;83.90;;;;;;5065499;28;20036;-68
2020/12/07 04:07:22;;;;;;;1.85;1.75;;;3.80;83.80;;;;;;5066040;28;20033;-68
2020/12/07 04:09:47;;;;;;;1.80;1.70;;;3.80;83.70;;;;;;5061825;28;20090;-68
2020/12/07 04:12:13;;;;;;;1.98;1.88;;;3.80;83.60;;;;;;5056532;28;20051;-69
2020/12/07 04:14:38;;;;;;;2.10;1.80;;;3.80;83.50;;;;;;5059903;28;20087;-68
2020/12/07 04:17:04;;;;;;;1.60;1.50;;;3.80;83.50;;;;;;5064317;28;20039;-66
2020/12/07 04:19:29;;;;;;;2.05;1.85;;;3.80;83.50;;;;;;5061498;28;20520;-68
2020/12/07 04:21:55;;;;;;;2.10;2.00;;;3.70;83.40;;;;;;5062311;28;20242;-68
2020/12/07 04:24:21;;;;;;;2.20;2.00;;;3.70;83.30;;;;;;5067169;28;20086;-70
2020/12/07 04:26:46;;;;;;;2.25;2.10;;;3.70;83.40;;;;;;5067214;28;20033;-68
2020/12/07 04:29:12;;;;;;;2.53;2.00;;;3.60;83.50;;;;;;5068419;28;20029;-68
2020/12/07 04:31:37;;;;;;;2.88;2.67;;;3.60;83.50;;;;;;5066500;28;20048;-68
2020/12/07 04:34:03;;;;;;;2.20;2.10;;;3.60;83.60;;;;;;5069558;28;20109;-68
2020/12/07 04:36:29;;;;;;;2.10;2.00;;;3.60;83.70;;;;;;5060582;28;20047;-68
2020/12/07 04:38:54;;;;;;;2.42;2.22;;;3.60;83.70;;;;;;5060195;28;20092;-68
2020/12/07 04:41:20;;;;;;;2.70;2.40;;;3.60;83.70;;;;;;5062313;28;20042;-68
2020/12/07 04:43:48;;;;;;;2.50;2.30;;;3.50;83.70;;;;;;5060864;28;20071;-68
2020/12/07 04:46:14;;;;;;;2.60;2.40;;;3.50;83.70;;;;;;5072129;28;20116;-68
2020/12/07 04:48:41;;;;;;;2.88;2.67;;;3.60;83.80;;;;;;5067227;28;20032;-68
2020/12/07 04:51:08;;;;;;;2.72;2.53;;;3.50;83.70;;;;;;5066919;28;20044;-68
2020/12/07 04:53:35;;;;;;;3.22;2.92;;;3.50;83.80;;;;;;5061319;28;20033;-68
2020/12/07 04:56:01;;;;;;;2.90;2.70;;;3.50;83.80;;;;;;5060486;28;20029;-69
2020/12/07 04:58:27;;;;;;;4.38;2.60;;;3.50;83.70;;;;;;5059667;28;20037;-68
2020/12/07 05:00:53;;;;;;;3.08;2.88;;;3.50;83.80;;;;;;5060573;28;20067;-68
2020/12/07 05:03:19;;;;;;;2.88;2.67;;;3.50;83.70;;;;;;5060712;28;20068;-67
2020/12/07 05:05:44;;;;;;;3.53;3.22;;;3.50;83.70;;;;;;5059374;28;20048;-68
2020/12/07 05:08:10;;;;;;;3.92;3.63;;;3.50;83.70;;;;;;5059339;28;20120;-68
2020/12/07 05:10:41;;;;;;;3.50;3.20;;;3.50;83.60;;;;;;5060445;28;20043;-68
2020/12/07 05:13:32;;;;;;;3.50;3.20;;;3.40;83.60;;;;;;5071026;28;20040;-68
2020/12/07 05:15:58;;;;;;;4.30;3.90;;;3.50;83.70;;;;;;5060994;28;20035;-68
2020/12/07 05:18:23;;;;;;;4.75;3.55;;;3.40;83.70;;;;;;5068501;28;20103;-67
2020/12/07 05:20:49;;;;;;;4.57;3.80;;;3.40;83.80;;;;;;5068766;28;20024;-68
2020/12/07 05:23:16;;;;;;;3.78;3.13;;;3.40;83.80;;;;;;5066734;28;20029;-68
2020/12/07 05:25:45;;;;;;;4.82;3.15;;;3.40;83.90;;;;;;5068596;28;20028;-68
2020/12/07 05:28:12;;;;;;;15.68;3.10;;;3.40;83.90;;;;;;5060929;28;20037;-67
2020/12/07 05:30:43;;;;;;;4.05;3.20;;;3.30;83.90;;;;;;5056727;28;20075;-67
2020/12/07 05:33:08;;;;;;;15.68;3.28;;;3.30;84.00;;;;;;5061913;28;20057;-68
2020/12/07 05:35:38;;;;;;;13.68;3.50;;;3.30;84.10;;;;;;5059088;28;20492;-68
2020/12/07 05:38:05;;;;;;;21.48;3.55;;;3.30;84.20;;;;;;5059535;28;20112;-67
2020/12/07 05:40:31;;;;;;;9.90;3.47;;;3.20;84.10;;;;;;5060835;28;20021;-68
2020/12/07 05:42:58;;;;;;;4.32;2.97;;;3.20;84.10;;;;;;5057625;28;20083;-68
2020/12/07 05:45:24;;;;;;;7.28;3.33;;;3.20;84.20;;;;;;5058919;28;20492;-67
2020/12/07 05:47:53;;;;;;;4.05;3.20;;;3.10;84.20;;;;;;5069279;28;20115;-66
2020/12/07 05:50:20;;;;;;;4.20;3.80;;;3.10;84.30;;;;;;5069759;28;20029;-67
2020/12/07 05:52:48;;;;;;;4.68;3.28;;;3.10;84.30;;;;;;5069330;28;20032;-68
2020/12/07 05:55:15;;;;;;;5.65;3.72;;;3.10;84.40;;;;;;5071069;28;20033;-67
2020/12/07 05:58:04;;;;;;;4.82;3.92;;;3.10;84.60;;;;;;5070709;28;20036;-68
2020/12/07 06:00:35;;;;;;;5.13;3.90;;;3.10;84.70;;;;;;5069827;28;20037;-67
2020/12/07 06:03:03;;;;;;;5.97;4.53;;;3.10;84.80;;;;;;5069722;28;20033;-68
2020/12/07 06:05:29;;;;;;;3.95;3.50;;;3.00;84.80;;;;;;5070315;28;20046;-68
2020/12/07 06:07:57;;;;;;;5.47;4.05;;;3.00;84.80;;;;;;5070742;28;20500;-68
2020/12/07 06:10:28;;;;;;;5.22;4.38;;;3.00;84.90;;;;;;5066530;28;20045;-68
2020/12/07 06:12:56;;;;;;;5.80;4.25;;;3.00;84.90;;;;;;5065478;28;20686;-68
2020/12/07 06:15:25;;;;;;;5.40;4.20;;;3.00;85.00;;;;;;5070680;28;20044;-67
2020/12/07 06:17:51;;;;;;;7.50;6.28;;;3.00;85.00;;;;;;5069901;28;20032;-68
2020/12/07 06:20:31;;;;;;;7.03;5.60;;;3.10;85.10;;;;;;5070666;28;20037;-68
2020/12/07 06:22:58;;;;;;;5.43;4.50;;;3.00;85.40;;;;;;5068883;28;20025;-67
2020/12/07 06:25:32;;;;;;;4.95;3.88;;;3.00;85.20;;;;;;5069017;28;20065;-68
2020/12/07 06:27:59;;;;;;;4.40;2.50;;;3.10;85.30;;;;;;5069550;28;20423;-68
2020/12/07 06:30:31;;;;;;;3.78;3.30;;;3.10;85.20;;;;;;5069061;28;20066;-67
2020/12/07 06:32:57;;;;;;;4.65;3.60;;;3.10;85.10;;;;;;5055276;28;20734;-68
2020/12/07 06:35:26;;;;;;;4.47;3.47;;;3.20;85.10;;;;;;5068860;28;20036;-68
2020/12/07 06:37:52;;;;;;;7.07;4.13;;;3.20;85.20;;;;;;5067652;28;20404;-67
2020/12/07 06:40:20;;;;;;;6.72;4.65;;;3.30;85.30;;;;;;5069475;28;20029;-67
2020/12/07 06:42:47;;;;;;;7.60;5.38;;;3.30;85.10;;;;;;5069001;28;20033;-67
2020/12/07 06:45:42;;;;;;;6.65;4.75;;;3.30;85.10;;;;;;5068372;28;20075;-67
2020/12/07 06:48:14;;;;;;;8.60;6.25;;;3.40;85.10;;;;;;5055974;28;20067;-67
2020/12/07 06:50:41;;;;;;;8.40;6.07;;;3.40;84.70;;;;;;5068940;28;20132;-67
2020/12/07 06:55:53;;;;;;;7.85;5.57;;;3.40;84.70;;;;;;5068632;28;20025;-67
2020/12/07 06:58:46;;;;;;;7.47;5.03;;;3.40;84.60;;;;;;5069600;28;20039;-67
2020/12/07 07:01:14;;;;;;;5.63;4.10;;;3.40;84.80;;;;;;5056668;28;20028;-68
2020/12/07 07:03:47;;;;;;;6.70;4.38;;;3.40;84.40;;;;;;5067600;28;20024;-68
2020/12/07 07:06:17;;;;;;;6.05;4.05;;;3.50;84.60;;;;;;5064367;28;20028;-66
2020/12/07 07:08:43;;;;;;;12.80;6.00;;;3.40;85.30;;;;;;5055008;28;20120;-67
2020/12/07 07:11:09;;;;;;;7.15;4.90;;;3.50;84.60;;;;;;5050518;28;20033;-68
2020/12/07 07:13:34;;;;;;;7.95;5.10;;;3.50;84.60;;;;;;5065679;28;20056;-68
2020/12/07 07:16:00;;;;;;;7.45;5.13;;;3.50;84.50;;;;;;5068554;28;20108;-68
2020/12/07 07:18:26;;;;;;;8.32;5.40;;;3.50;84.50;;;;;;5068579;28;20155;-68
2020/12/07 07:20:58;;;;;;;6.22;4.65;;;3.50;84.50;;;;;;5068991;28;20101;-68
2020/12/07 07:23:25;;;;;;;6.38;5.13;;;3.50;84.60;;;;;;5068253;28;20039;-68
2020/12/07 07:25:55;;;;;;;7.80;4.82;;;3.50;84.50;;;;;;5068637;28;20032;-68
2020/12/07 07:28:22;;;;;;;6.68;5.07;;;3.50;84.50;;;;;;5068451;28;20033;-67
2020/12/07 07:30:47;;;;;;;6.57;5.28;;;3.50;84.50;;;;;;5068541;28;20108;-67
2020/12/07 07:33:13;;;;;;;7.93;5.95;;;3.40;84.40;;;;;;5069643;28;20115;-68
2020/12/07 07:35:39;;;;;;;7.85;4.97;;;3.50;84.70;;;;;;5067128;28;20036;-67
2020/12/07 07:38:04;;;;;;;6.30;4.75;;;3.50;84.60;;;;;;5066823;28;20166;-67
2020/12/07 07:40:30;;;;;;;6.82;5.22;;;3.50;85.40;;;;;;5065362;28;20045;-67
2020/12/07 07:43:04;;;;;;;8.52;6.07;;;3.50;84.60;;;;;;5066845;28;20032;-67
2020/12/07 07:45:33;;;;;;;6.57;4.95;;;3.50;84.60;;;;;;5067218;28;20033;-67
2020/12/07 08:06:14;;;;;;;5.72;3.83;;;3.50;84.50;;;;;;5060074;28;20124;-67
2020/12/07 08:17:54;;;;;;;3.30;3.00;;;3.50;85.40;;;;;;5068796;28;20124;-68
2020/12/07 08:20:24;;;;;;;4.68;3.45;;;3.50;84.80;;;;;;5070684;28;20029;-67
2020/12/07 08:23:00;;;;;;;5.07;3.63;;;3.50;84.60;;;;;;5067104;28;20037;-67
2020/12/07 08:25:47;;;;;;;3.83;3.38;;;3.60;84.60;;;;;;5068307;28;20531;-67
2020/12/07 08:28:31;;;;;;;4.07;3.15;;;3.60;84.60;;;;;;5067564;28;20059;-68
2020/12/07 08:31:07;;;;;;;4.30;2.63;;;3.60;84.50;;;;;;5067407;28;20047;-67
2020/12/07 08:33:36;;;;;;;5.95;4.45;;;3.60;84.50;;;;;;5067891;28;20017;-67
2020/12/07 08:36:04;;;;;;;7.65;5.30;;;3.60;84.60;;;;;;5069030;28;20031;-68
2020/12/07 08:38:29;;;;;;;6.13;4.50;;;3.60;84.80;;;;;;5068412;28;20033;-67
2020/12/07 08:41:05;;;;;;;5.38;3.58;;;3.60;85.10;;;;;;5068381;28;20036;-68
2020/12/07 08:43:31;;;;;;;4.88;3.50;;;3.70;85.20;;;;;;5066697;28;20033;-68
2020/12/07 08:45:57;;;;;;;4.97;3.35;;;3.70;85.10;;;;;;5068401;28;20033;-68
2020/12/07 08:48:23;;;;;;;4.10;3.13;;;3.80;85.10;;;;;;5067988;28;20105;-68
2020/12/07 08:50:49;;;;;;;4.75;3.20;;;3.80;85.00;;;;;;5068849;28;20066;-67
2020/12/07 08:53:14;;;;;;;6.32;3.40;;;3.80;84.70;;;;;;5068613;28;20073;-68
2020/12/07 08:55:40;;;;;;;5.30;2.95;;;3.90;84.70;;;;;;5067316;28;20115;-68
2020/12/07 08:58:06;;;;;;;3.88;3.47;;;3.90;84.70;;;;;;5066361;28;20031;-68
2020/12/07 09:00:32;;;;;;;5.75;3.30;;;3.90;84.70;;;;;;5066572;28;20119;-68
2020/12/07 09:02:57;;;;;;;3.67;2.97;;;4.00;84.70;;;;;;5066410;28;20024;-68
2020/12/07 09:05:23;;;;;;;3.92;3.10;;;4.00;84.60;;;;;;5067944;28;20025;-68
2020/12/07 09:07:49;;;;;;;4.90;3.03;;;4.00;84.40;;;;;;5067990;28;20052;-68
2020/12/07 09:10:15;;;;;;;4.25;3.47;;;4.10;84.40;;;;;;5066493;28;20450;-68
2020/12/07 09:12:40;;;;;;;5.03;3.40;;;4.10;84.40;;;;;;5063437;28;20072;-68
2020/12/07 09:15:06;;;;;;;5.13;2.88;;;4.10;84.20;;;;;;5067669;28;20052;-67
2020/12/07 09:17:32;;;;;;;3.53;2.90;;;4.10;84.10;;;;;;5067370;28;20158;-68
2020/12/07 09:19:57;;;;;;;4.70;2.67;;;4.10;84.00;;;;;;5067468;28;20036;-67
2020/12/07 09:22:23;;;;;;;3.70;2.65;;;4.20;84.00;;;;;;5065017;28;20025;-67
2020/12/07 09:24:49;;;;;;;3.63;2.80;;;4.20;83.90;;;;;;5067784;28;20036;-67
2020/12/07 09:27:15;;;;;;;2.80;2.28;;;4.20;83.90;;;;;;5067596;28;20166;-68
2020/12/07 09:29:41;;;;;;;3.03;2.33;;;4.20;83.90;;;;;;5060171;28;20074;-67
2020/12/07 09:32:07;;;;;;;4.18;2.92;;;4.30;83.90;;;;;;5072014;28;20047;-64
2020/12/07 09:34:33;;;;;;;2.92;2.20;;;4.30;84.60;;;;;;5061536;28;20526;-67
2020/12/07 09:36:59;;;;;;;2.55;2.28;;;4.30;83.40;;;;;;5071033;28;20029;-67
2020/12/07 09:39:25;;;;;;;2.63;2.20;;;4.30;83.40;;;;;;5066120;28;20047;-67
2020/12/07 09:41:50;;;;;;;4.55;3.10;;;4.30;83.40;;;;;;5068681;28;20698;-68
2020/12/07 09:44:16;;;;;;;5.20;3.30;;;4.30;83.50;;;;;;5070514;28;20045;-68
2020/12/07 09:46:42;;;;;;;5.72;3.33;;;4.30;83.50;;;;;;5070211;28;20044;-67
2020/12/07 09:49:08;;;;;;;4.90;3.40;;;4.30;83.50;;;;;;5070648;28;20033;-68
2020/12/07 09:51:34;;;;;;;6.35;4.45;;;4.40;83.40;;;;;;5070738;28;20036;-68
2020/12/07 09:53:59;;;;;;;8.80;5.95;;;4.40;83.30;;;;;;5069811;28;20020;-67
2020/12/07 09:56:29;;;;;;;5.15;3.40;;;4.40;83.20;;;;;;5069452;28;20025;-67
2020/12/07 09:58:56;;;;;;;3.58;2.78;;;4.40;83.20;;;;;;5070653;28;20377;-68
2020/12/07 10:01:22;;;;;;;4.88;3.47;;;4.40;83.20;;;;;;5070741;28;20039;-68
2020/12/07 10:03:48;;;;;;;4.47;3.85;;;4.40;83.10;;;;;;5070589;28;20028;-68
2020/12/07 10:06:14;;;;;;;5.25;4.25;;;4.50;83.00;;;;;;5069645;28;20028;-67
2020/12/07 10:08:40;;;;;;;6.22;4.53;;;4.40;82.90;;;;;;5069727;28;20028;-68
2020/12/07 10:11:06;;;;;;;4.63;3.67;;;4.40;82.80;;;;;;5067940;28;20041;-67
2020/12/07 10:13:32;;;;;;;4.47;3.20;;;4.50;82.80;;;;;;5064541;28;20134;-67
2020/12/07 10:15:58;;;;;;;4.95;3.70;;;4.40;82.60;;;;;;5069303;28;20510;-67
2020/12/07 10:18:24;;;;;;;4.78;3.10;;;4.40;82.50;;;;;;5077522;28;20464;-67
2020/12/07 10:20:49;;;;;;;4.32;3.15;;;4.40;82.50;;;;;;5069204;28;20037;-68
2020/12/07 10:23:17;;;;;;;5.55;4.68;;;4.40;82.60;;;;;;5068796;28;20067;-67
2020/12/07 10:25:48;;;;;;;12.43;7.30;;;4.40;82.60;;;;;;5067821;28;20052;-67
2020/12/07 10:28:14;;;;;;;5.35;4.07;;;4.40;82.60;;;;;;5066633;28;20032;-67
2020/12/07 10:30:40;;;;;;;6.45;4.90;;;4.40;82.60;;;;;;5062875;28;20412;-68
2020/12/07 10:33:07;;;;;;;5.68;3.80;;;4.40;82.60;;;;;;5060144;28;20032;-68
2020/12/07 10:35:32;;;;;;;6.35;4.15;;;4.50;82.60;;;;;;5060535;28;20025;-68
2020/12/07 10:37:58;;;;;;;4.60;3.17;;;4.40;82.40;;;;;;5066353;28;20033;-68
2020/12/07 10:40:24;;;;;;;4.70;3.35;;;4.40;82.40;;;;;;5060323;28;20086;-68
2020/12/07 10:42:49;;;;;;;9.48;8.43;;;4.40;82.30;;;;;;5066967;28;20036;-68
2020/12/07 10:45:15;;;;;;;5.60;3.67;;;4.40;82.20;;;;;;5068598;28;20036;-68
2020/12/07 10:47:41;;;;;;;4.45;3.83;;;4.40;82.20;;;;;;5069917;28;20068;-68
2020/12/07 10:50:07;;;;;;;7.00;5.80;;;4.40;82.40;;;;;;5068657;28;20032;-68
2020/12/07 10:52:32;;;;;;;4.30;3.28;;;4.40;82.50;;;;;;5068543;28;20400;-68
2020/12/07 10:54:58;;;;;;;7.22;5.10;;;4.40;82.70;;;;;;5068513;28;20032;-68
2020/12/07 10:57:24;;;;;;;5.93;4.22;;;4.40;82.70;;;;;;5067933;28;20402;-69
2020/12/07 10:59:49;;;;;;;5.47;4.10;;;4.40;82.60;;;;;;5063594;28;20040;-69
2020/12/07 11:02:15;;;;;;;5.55;3.70;;;4.50;83.30;;;;;;5064962;28;20086;-69
2020/12/07 11:04:41;;;;;;;6.90;4.22;;;4.50;82.50;;;;;;5068406;28;20519;-69
2020/12/07 11:07:13;;;;;;;7.55;4.65;;;4.50;82.40;;;;;;5068872;28;20075;-69
2020/12/07 11:09:38;;;;;;;8.10;5.15;;;4.50;82.50;;;;;;5066398;28;20040;-69
2020/12/07 11:12:10;;;;;;;6.55;3.55;;;4.50;82.50;;;;;;5063507;28;20037;-68
2020/12/07 11:14:35;;;;;;;4.55;3.55;;;4.50;82.50;;;;;;5054223;28;20055;-69
2020/12/07 11:17:01;;;;;;;4.05;3.17;;;4.50;82.50;;;;;;5065673;28;20033;-69
2020/12/07 11:19:27;;;;;;;5.47;3.90;;;4.50;82.40;;;;;;5068993;28;20740;-69
2020/12/07 11:21:52;;;;;;;6.72;5.30;;;4.50;82.40;;;;;;5067267;28;20040;-69
2020/12/07 11:24:18;;;;;;;9.30;5.82;;;4.50;82.40;;;;;;5066337;28;20056;-69
2020/12/07 11:26:43;;;;;;;9.20;5.63;;;4.50;82.40;;;;;;5068740;28;20092;-69
2020/12/07 11:29:09;;;;;;;7.10;4.25;;;4.50;82.50;;;;;;5069515;28;20028;-69
2020/12/07 11:31:35;;;;;;;5.82;4.13;;;4.50;82.50;;;;;;5069064;28;20549;-69
2020/12/07 11:34:00;;;;;;;7.30;4.20;;;4.50;82.50;;;;;;5069461;28;20028;-69
2020/12/07 11:36:26;;;;;;;5.57;3.67;;;4.50;82.50;;;;;;5068976;28;20185;-69
2020/12/07 11:39:06;;;;;;;7.13;4.60;;;4.60;82.40;;;;;;5065558;28;20044;-69
2020/12/07 11:41:54;;;;;;;5.85;4.43;;;4.60;82.40;;;;;;5057884;28;20400;-68
2020/12/07 11:44:20;;;;;;;10.23;5.90;;;4.60;82.40;;;;;;5066231;28;20032;-69
2020/12/07 11:49:11;;;;;;;8.80;5.70;;;4.60;82.20;;;;;;5069019;28;20043;-69
2020/12/07 11:51:38;;;;;;;7.80;5.50;;;4.60;82.20;;;;;;5064660;28;20033;-68
2020/12/07 11:54:04;;;;;;;9.65;5.47;;;4.70;82.30;;;;;;5069187;28;20612;-68
2020/12/07 11:56:37;;;;;;;7.00;4.88;;;4.70;82.40;;;;;;5066330;28;20081;-68
2020/12/07 11:59:04;;;;;;;8.20;5.22;;;4.70;82.30;;;;;;5067593;28;20029;-68
2020/12/07 12:01:33;;;;;;;8.07;5.22;;;4.70;82.30;;;;;;5065576;28;20506;-68
2020/12/07 12:03:59;;;;;;;8.07;5.40;;;4.80;83.10;;;;;;5068331;28;20040;-68
2020/12/07 12:06:27;;;;;;;9.88;5.80;;;4.80;83.20;;;;;;5068077;28;20037;-68
2020/12/07 12:08:54;;;;;;;12.00;6.38;;;4.80;82.20;;;;;;5066220;28;20093;-68
2020/12/07 12:11:25;;;;;;;7.40;5.38;;;4.80;82.10;;;;;;5062015;28;20114;-68
2020/12/07 12:13:51;;;;;;;8.70;4.93;;;4.80;82.00;;;;;;5068213;28;20036;-68
2020/12/07 12:16:17;;;;;;;5.65;4.57;;;4.90;82.00;;;;;;5066338;28;20036;-67
2020/12/07 12:18:43;;;;;;;7.20;5.18;;;4.90;81.80;;;;;;5065897;28;20060;-68
2020/12/07 12:21:08;;;;;;;7.85;5.63;;;4.90;81.70;;;;;;5061429;28;20053;-68
2020/12/07 12:23:34;;;;;;;7.53;5.75;;;4.90;81.80;;;;;;5068159;28;20044;-68
2020/12/07 12:26:00;;;;;;;6.32;4.72;;;4.90;81.80;;;;;;5068240;28;20040;-68
2020/12/07 12:28:25;;;;;;;6.18;4.95;;;4.90;81.70;;;;;;5065831;28;20036;-68
2020/12/07 12:30:51;;;;;;;6.22;4.90;;;4.90;81.60;;;;;;5066438;28;20123;-68
2020/12/07 12:33:18;;;;;;;5.32;4.63;;;4.90;81.60;;;;;;5068221;28;20036;-68
2020/12/07 12:35:44;;;;;;;6.22;4.10;;;5.00;81.60;;;;;;5069513;28;20032;-68
2020/12/07 12:38:09;;;;;;;6.63;4.93;;;4.90;81.40;;;;;;5071224;28;20035;-68
2020/12/07 12:40:35;;;;;;;3.88;3.42;;;4.90;81.40;;;;;;5068182;28;20024;-68
2020/12/07 12:43:01;;;;;;;4.10;3.70;;;4.90;81.30;;;;;;5068978;28;20078;-68
2020/12/07 12:45:26;;;;;;;5.32;4.00;;;4.90;81.20;;;;;;5066060;28;20554;-67
2020/12/07 12:47:52;;;;;;;4.80;3.88;;;4.90;81.30;;;;;;5069885;28;20029;-68
2020/12/07 12:50:17;;;;;;;4.97;3.92;;;4.90;81.50;;;;;;5069893;28;20044;-68
2020/12/07 12:52:44;;;;;;;5.22;4.10;;;4.90;81.50;;;;;;5061099;28;20086;-68
2020/12/07 12:55:11;;;;;;;4.82;4.25;;;4.90;81.50;;;;;;5069849;28;20423;-68
2020/12/07 12:57:37;;;;;;;5.93;4.50;;;4.90;81.50;;;;;;5071273;28;20473;-68
2020/12/07 13:00:05;;;;;;;5.53;4.35;;;4.90;81.40;;;;;;5071647;28;20035;-68
2020/12/07 13:02:31;;;;;;;5.40;4.20;;;4.90;81.40;;;;;;5068152;28;20052;-68
2020/12/07 13:04:57;;;;;;;4.80;4.22;;;4.90;81.50;;;;;;5069655;28;20456;-69
2020/12/07 13:07:22;;;;;;;6.25;4.13;;;4.90;81.40;;;;;;5068934;28;20028;-69
2020/12/07 13:09:48;;;;;;;6.18;5.07;;;4.90;81.40;;;;;;5067536;28;20067;-68
2020/12/07 13:12:14;;;;;;;5.93;5.32;;;4.90;81.30;;;;;;5068270;28;20107;-69
2020/12/07 13:14:39;;;;;;;7.80;6.85;;;5.00;81.30;;;;;;5060008;28;22731;-67
2020/12/07 13:17:09;;;;;;;6.15;5.28;;;5.00;81.40;;;;;;5061022;28;20495;-68
2020/12/07 13:19:35;;;;;;;4.85;4.35;;;5.00;81.30;;;;;;5066779;28;20024;-68
2020/12/07 13:25:00;;;;;;;6.43;4.97;;;5.00;81.20;;;;;;5071368;28;20048;-68
2020/12/07 13:29:54;;;;;;;4.35;3.95;;;5.00;81.20;;;;;;5071252;28;20032;-68
2020/12/07 13:32:20;;;;;;;4.10;3.70;;;5.10;81.20;;;;;;5069442;28;20055;-70
2020/12/07 13:34:46;;;;;;;4.00;3.63;;;5.10;81.30;;;;;;5069812;28;20033;-68